sensor_id;sensor_type;location;lat;lon;timestamp;pressure;altitude;pressure_sealevel;temperature;humidity
52577;BME280;38469;53.562;10.048;2023-07-22T00:00:35;100932.56;;;15.32;100.00
52577;BME280;38469;53.562;10.048;2023-07-22T00:03:02;100927.81;;;15.32;100.00
52577;BME280;38469;53.562;10.048;2023-07-22T00:05:29;100935.84;;;15.43;100.00
52577;BME280;38469;53.562;10.048;2023-07-22T00:07:55;100934.88;;;15.47;100.00
52577;BME280;38469;53.562;10.048;2023-07-22T00:10:21;100936.81;;;15.38;100.00
52577;BME280;38469;53.562;10.048;2023-07-22T00:12:49;100930.78;;;15.45;100.00
52577;BME280;38469;53.562;10.048;2023-07-22T00:15:16;100915.72;;;15.46;100.00
52577;BME280;38469;53.562;10.048;2023-07-22T00:17:42;100923.72;;;15.21;100.00
52577;BME280;38469;53.562;10.048;2023-07-22T00:20:10;100927.97;;;15.36;100.00
52577;BME280;38469;53.562;10.048;2023-07-22T00:22:37;100930.22;;;15.25;100.00
52577;BME280;38469;53.562;10.048;2023-07-22T00:25:06;100933.41;;;15.41;100.00
52577;BME280;38469;53.562;10.048;2023-07-22T00:27:33;100927.13;;;15.18;100.00
52577;BME280;38469;53.562;10.048;2023-07-22T00:30:00;100934.50;;;15.14;100.00
52577;BME280;38469;53.562;10.048;2023-07-22T00:32:27;100934.97;;;15.16;100.00
52577;BME280;38469;53.562;10.048;2023-07-22T00:34:53;100928.78;;;15.19;100.00
52577;BME280;38469;53.562;10.048;2023-07-22T00:37:20;100932.56;;;15.23;100.00
52577;BME280;38469;53.562;10.048;2023-07-22T00:39:46;100932.03;;;15.13;100.00
52577;BME280;38469;53.562;10.048;2023-07-22T00:42:13;100935.47;;;15.10;100.00
52577;BME280;38469;53.562;10.048;2023-07-22T00:44:39;100928.63;;;15.16;100.00
52577;BME280;38469;53.562;10.048;2023-07-22T00:47:07;100936.91;;;15.07;100.00
52577;BME280;38469;53.562;10.048;2023-07-22T00:49:34;100934.31;;;15.02;100.00
52577;BME280;38469;53.562;10.048;2023-07-22T00:52:02;100935.78;;;15.00;100.00
52577;BME280;38469;53.562;10.048;2023-07-22T00:54:29;100931.84;;;14.92;100.00
52577;BME280;38469;53.562;10.048;2023-07-22T00:56:56;100930.84;;;14.97;100.00
52577;BME280;38469;53.562;10.048;2023-07-22T00:59:23;100935.09;;;14.86;100.00
52577;BME280;38469;53.562;10.048;2023-07-22T01:01:50;100931.19;;;14.87;100.00
52577;BME280;38469;53.562;10.048;2023-07-22T01:04:19;100895.59;;;14.58;100.00
52577;BME280;38469;53.562;10.048;2023-07-22T01:06:48;100928.72;;;14.85;100.00
52577;BME280;38469;53.562;10.048;2023-07-22T01:09:15;100927.91;;;14.93;100.00
52577;BME280;38469;53.562;10.048;2023-07-22T01:11:41;100936.28;;;15.10;100.00
52577;BME280;38469;53.562;10.048;2023-07-22T01:14:08;100919.94;;;15.17;100.00
52577;BME280;38469;53.562;10.048;2023-07-22T01:16:35;100929.91;;;15.10;100.00
52577;BME280;38469;53.562;10.048;2023-07-22T01:19:03;100925.66;;;15.21;100.00
52577;BME280;38469;53.562;10.048;2023-07-22T01:21:31;100916.81;;;15.10;100.00
52577;BME280;38469;53.562;10.048;2023-07-22T01:24:00;100926.72;;;14.77;100.00
52577;BME280;38469;53.562;10.048;2023-07-22T01:26:26;100927.06;;;14.84;100.00
52577;BME280;38469;53.562;10.048;2023-07-22T01:29:02;100928.28;;;15.09;100.00
52577;BME280;38469;53.562;10.048;2023-07-22T01:31:29;100911.97;;;14.68;100.00
52577;BME280;38469;53.562;10.048;2023-07-22T01:33:55;100919.03;;;14.74;100.00
52577;BME280;38469;53.562;10.048;2023-07-22T01:36:25;100923.59;;;14.70;100.00
52577;BME280;38469;53.562;10.048;2023-07-22T01:38:51;100918.47;;;14.55;100.00
52577;BME280;38469;53.562;10.048;2023-07-22T01:41:19;100912.91;;;14.55;100.00
52577;BME280;38469;53.562;10.048;2023-07-22T01:43:45;100918.78;;;14.45;100.00
52577;BME280;38469;53.562;10.048;2023-07-22T01:46:12;100910.09;;;14.38;100.00
52577;BME280;38469;53.562;10.048;2023-07-22T01:48:38;100920.25;;;14.51;100.00
52577;BME280;38469;53.562;10.048;2023-07-22T01:51:05;100914.53;;;14.48;100.00
52577;BME280;38469;53.562;10.048;2023-07-22T01:53:31;100912.72;;;14.43;100.00
52577;BME280;38469;53.562;10.048;2023-07-22T01:55:58;100906.19;;;14.48;100.00
52577;BME280;38469;53.562;10.048;2023-07-22T01:58:25;100909.19;;;14.60;100.00
52577;BME280;38469;53.562;10.048;2023-07-22T02:00:52;100903.50;;;14.73;100.00
52577;BME280;38469;53.562;10.048;2023-07-22T02:03:18;100903.50;;;14.73;100.00
52577;BME280;38469;53.562;10.048;2023-07-22T02:05:45;100915.50;;;14.43;100.00
52577;BME280;38469;53.562;10.048;2023-07-22T02:08:11;100907.50;;;14.42;100.00
52577;BME280;38469;53.562;10.048;2023-07-22T02:10:38;100916.19;;;14.57;100.00
52577;BME280;38469;53.562;10.048;2023-07-22T02:13:04;100912.91;;;14.55;100.00
52577;BME280;38469;53.562;10.048;2023-07-22T02:15:32;100913.66;;;14.39;100.00
52577;BME280;38469;53.562;10.048;2023-07-22T02:18:00;100910.03;;;14.29;100.00
52577;BME280;38469;53.562;10.048;2023-07-22T02:20:26;100917.47;;;14.51;100.00
52577;BME280;38469;53.562;10.048;2023-07-22T02:22:54;100919.97;;;14.53;100.00
52577;BME280;38469;53.562;10.048;2023-07-22T02:25:20;100915.31;;;14.40;100.00
52577;BME280;38469;53.562;10.048;2023-07-22T02:27:47;100931.03;;;14.22;100.00
52577;BME280;38469;53.562;10.048;2023-07-22T02:30:14;100918.78;;;14.45;100.00
52577;BME280;38469;53.562;10.048;2023-07-22T02:32:41;100931.84;;;14.45;100.00
52577;BME280;38469;53.562;10.048;2023-07-22T02:35:10;100932.06;;;14.26;100.00
52577;BME280;38469;53.562;10.048;2023-07-22T02:37:37;100936.38;;;14.32;100.00
52577;BME280;38469;53.562;10.048;2023-07-22T02:40:05;100935.69;;;14.26;100.00
52577;BME280;38469;53.562;10.048;2023-07-22T02:42:33;100930.59;;;13.98;100.00
52577;BME280;38469;53.562;10.048;2023-07-22T02:45:00;100934.88;;;14.04;100.00
52577;BME280;38469;53.562;10.048;2023-07-22T02:47:26;100930.97;;;14.05;100.00
52577;BME280;38469;53.562;10.048;2023-07-22T02:49:54;100946.72;;;14.18;100.00
52577;BME280;38469;53.562;10.048;2023-07-22T02:52:21;100937.53;;;14.09;100.00
52577;BME280;38469;53.562;10.048;2023-07-22T02:55:06;100929.81;;;14.28;100.00
52577;BME280;38469;53.562;10.048;2023-07-22T02:57:33;100938.34;;;14.09;100.00
52577;BME280;38469;53.562;10.048;2023-07-22T03:00:00;100934.28;;;14.15;100.00
52577;BME280;38469;53.562;10.048;2023-07-22T03:02:30;100936.69;;;14.30;100.00
52577;BME280;38469;53.562;10.048;2023-07-22T03:04:57;100941.28;;;14.35;100.00
52577;BME280;38469;53.562;10.048;2023-07-22T03:07:24;100950.97;;;14.46;100.00
52577;BME280;38469;53.562;10.048;2023-07-22T03:09:51;100944.22;;;14.39;100.00
52577;BME280;38469;53.562;10.048;2023-07-22T03:12:18;100933.44;;;14.37;100.00
52577;BME280;38469;53.562;10.048;2023-07-22T03:14:44;100943.16;;;14.26;100.00
52577;BME280;38469;53.562;10.048;2023-07-22T03:17:11;100944.72;;;14.10;100.00
52577;BME280;38469;53.562;10.048;2023-07-22T03:19:39;100943.19;;;14.04;100.00
52577;BME280;38469;53.562;10.048;2023-07-22T03:22:07;100943.78;;;14.14;100.00
52577;BME280;38469;53.562;10.048;2023-07-22T03:24:35;100952.38;;;14.35;100.00
52577;BME280;38469;53.562;10.048;2023-07-22T03:27:01;100949.44;;;14.09;100.00
52577;BME280;38469;53.562;10.048;2023-07-22T03:29:28;100956.72;;;13.97;100.00
52577;BME280;38469;53.562;10.048;2023-07-22T03:31:54;100958.38;;;13.98;100.00
52577;BME280;38469;53.562;10.048;2023-07-22T03:34:22;100940.94;;;14.06;100.00
52577;BME280;38469;53.562;10.048;2023-07-22T03:36:49;100959.56;;;14.05;100.00
52577;BME280;38469;53.562;10.048;2023-07-22T03:39:17;100965.19;;;13.92;100.00
52577;BME280;38469;53.562;10.048;2023-07-22T03:41:43;100963.47;;;13.82;100.00
52577;BME280;38469;53.562;10.048;2023-07-22T03:44:09;100961.84;;;14.03;100.00
52577;BME280;38469;53.562;10.048;2023-07-22T03:46:36;100959.88;;;14.04;100.00
52577;BME280;38469;53.562;10.048;2023-07-22T03:49:02;100972.84;;;14.17;100.00
52577;BME280;38469;53.562;10.048;2023-07-22T03:51:29;100969.75;;;14.18;100.00
52577;BME280;38469;53.562;10.048;2023-07-22T03:53:55;100957.44;;;14.33;100.00
52577;BME280;38469;53.562;10.048;2023-07-22T03:56:23;100958.28;;;14.11;100.00
52577;BME280;38469;53.562;10.048;2023-07-22T03:58:50;100961.41;;;14.18;100.00
52577;BME280;38469;53.562;10.048;2023-07-22T04:01:17;100966.13;;;14.40;100.00
52577;BME280;38469;53.562;10.048;2023-07-22T04:03:43;100943.97;;;14.18;100.00
52577;BME280;38469;53.562;10.048;2023-07-22T04:06:10;100939.28;;;14.27;100.00
52577;BME280;38469;53.562;10.048;2023-07-22T04:08:36;100980.00;;;14.31;100.00
52577;BME280;38469;53.562;10.048;2023-07-22T04:11:03;100970.13;;;14.25;100.00
52577;BME280;38469;53.562;10.048;2023-07-22T04:13:31;100956.84;;;14.14;100.00
52577;BME280;38469;53.562;10.048;2023-07-22T04:15:57;100974.13;;;14.11;100.00
52577;BME280;38469;53.562;10.048;2023-07-22T04:18:24;100972.34;;;14.15;100.00
52577;BME280;38469;53.562;10.048;2023-07-22T04:20:55;100958.22;;;14.25;100.00
52577;BME280;38469;53.562;10.048;2023-07-22T04:23:22;100975.97;;;14.46;100.00
52577;BME280;38469;53.562;10.048;2023-07-22T04:25:48;100984.28;;;14.38;100.00
52577;BME280;38469;53.562;10.048;2023-07-22T04:28:15;100985.19;;;14.55;100.00
52577;BME280;38469;53.562;10.048;2023-07-22T04:30:43;100987.09;;;14.46;100.00
52577;BME280;38469;53.562;10.048;2023-07-22T04:33:10;100983.47;;;14.37;100.00
52577;BME280;38469;53.562;10.048;2023-07-22T04:35:37;100987.31;;;14.27;100.00
52577;BME280;38469;53.562;10.048;2023-07-22T04:38:04;100984.97;;;14.43;100.00
52577;BME280;38469;53.562;10.048;2023-07-22T04:40:30;100995.22;;;14.65;100.00
52577;BME280;38469;53.562;10.048;2023-07-22T04:42:57;100991.09;;;14.62;100.00
52577;BME280;38469;53.562;10.048;2023-07-22T04:45:23;100998.50;;;14.36;100.00
52577;BME280;38469;53.562;10.048;2023-07-22T04:47:51;101015.59;;;14.60;100.00
52577;BME280;38469;53.562;10.048;2023-07-22T04:50:18;101013.47;;;14.57;100.00
52577;BME280;38469;53.562;10.048;2023-07-22T04:52:45;101017.25;;;14.61;100.00
52577;BME280;38469;53.562;10.048;2023-07-22T04:55:12;101017.25;;;14.61;100.00
52577;BME280;38469;53.562;10.048;2023-07-22T04:57:40;101020.75;;;14.75;100.00
52577;BME280;38469;53.562;10.048;2023-07-22T05:00:08;101024.72;;;14.83;100.00
52577;BME280;38469;53.562;10.048;2023-07-22T05:02:38;101019.03;;;14.96;100.00
52577;BME280;38469;53.562;10.048;2023-07-22T05:05:07;101028.09;;;15.10;100.00
52577;BME280;38469;53.562;10.048;2023-07-22T05:07:34;101022.78;;;14.92;100.00
52577;BME280;38469;53.562;10.048;2023-07-22T05:10:01;101024.84;;;15.25;100.00
52577;BME280;38469;53.562;10.048;2023-07-22T05:12:27;101030.41;;;15.25;100.00
52577;BME280;38469;53.562;10.048;2023-07-22T05:14:54;101033.91;;;15.40;100.00
52577;BME280;38469;53.562;10.048;2023-07-22T05:17:20;101035.09;;;15.64;100.00
52577;BME280;38469;53.562;10.048;2023-07-22T05:19:47;101030.34;;;15.65;100.00
52577;BME280;38469;53.562;10.048;2023-07-22T05:22:15;101027.25;;;15.83;100.00
52577;BME280;38469;53.562;10.048;2023-07-22T05:24:42;101030.22;;;15.87;100.00
52577;BME280;38469;53.562;10.048;2023-07-22T05:27:08;101034.94;;;15.61;100.00
52577;BME280;38469;53.562;10.048;2023-07-22T05:29:35;101045.09;;;15.74;100.00
52577;BME280;38469;53.562;10.048;2023-07-22T05:32:01;101034.47;;;16.01;100.00
52577;BME280;38469;53.562;10.048;2023-07-22T05:34:27;101029.69;;;15.68;100.00
52577;BME280;38469;53.562;10.048;2023-07-22T05:36:54;101034.09;;;15.52;100.00
52577;BME280;38469;53.562;10.048;2023-07-22T05:39:22;101034.25;;;15.64;100.00
52577;BME280;38469;53.562;10.048;2023-07-22T05:41:48;101043.13;;;15.66;100.00
52577;BME280;38469;53.562;10.048;2023-07-22T05:44:15;101038.69;;;15.82;100.00
52577;BME280;38469;53.562;10.048;2023-07-22T05:46:41;101041.19;;;16.09;100.00
52577;BME280;38469;53.562;10.048;2023-07-22T05:49:08;101048.38;;;15.76;100.00
52577;BME280;38469;53.562;10.048;2023-07-22T05:51:35;101055.91;;;15.75;100.00
52577;BME280;38469;53.562;10.048;2023-07-22T05:54:02;101051.50;;;16.00;100.00
52577;BME280;38469;53.562;10.048;2023-07-22T05:56:30;101051.81;;;15.90;100.00
52577;BME280;38469;53.562;10.048;2023-07-22T05:58:57;101062.47;;;15.88;100.00
52577;BME280;38469;53.562;10.048;2023-07-22T06:01:24;101036.28;;;15.89;100.00
52577;BME280;38469;53.562;10.048;2023-07-22T06:03:50;101053.94;;;16.27;100.00
52577;BME280;38469;53.562;10.048;2023-07-22T06:06:17;101053.28;;;16.21;100.00
52577;BME280;38469;53.562;10.048;2023-07-22T06:08:43;101057.53;;;16.19;100.00
52577;BME280;38469;53.562;10.048;2023-07-22T06:11:10;101063.09;;;16.27;100.00
52577;BME280;38469;53.562;10.048;2023-07-22T06:13:37;101057.38;;;16.50;100.00
52577;BME280;38469;53.562;10.048;2023-07-22T06:16:04;101055.81;;;16.69;100.00
52577;BME280;38469;53.562;10.048;2023-07-22T06:18:30;101061.81;;;16.25;100.00
52577;BME280;38469;53.562;10.048;2023-07-22T06:20:57;101055.75;;;16.14;100.00
52577;BME280;38469;53.562;10.048;2023-07-22T06:23:23;101070.16;;;16.25;100.00
52577;BME280;38469;53.562;10.048;2023-07-22T06:25:50;101059.81;;;16.51;100.00
52577;BME280;38469;53.562;10.048;2023-07-22T06:28:17;101071.78;;;16.26;100.00
52577;BME280;38469;53.562;10.048;2023-07-22T06:30:45;101062.28;;;16.18;100.00
52577;BME280;38469;53.562;10.048;2023-07-22T06:33:11;101065.22;;;16.22;100.00
52577;BME280;38469;53.562;10.048;2023-07-22T06:35:37;101063.41;;;16.43;100.00
52577;BME280;38469;53.562;10.048;2023-07-22T06:38:04;101065.97;;;16.82;100.00
52577;BME280;38469;53.562;10.048;2023-07-22T06:40:30;101071.13;;;16.63;100.00
52577;BME280;38469;53.562;10.048;2023-07-22T06:42:57;101072.56;;;16.69;100.00
52577;BME280;38469;53.562;10.048;2023-07-22T06:45:23;101076.78;;;16.92;100.00
52577;BME280;38469;53.562;10.048;2023-07-22T06:47:51;101077.66;;;17.13;100.00
52577;BME280;38469;53.562;10.048;2023-07-22T06:50:17;101071.41;;;17.16;100.00
52577;BME280;38469;53.562;10.048;2023-07-22T06:52:44;101077.19;;;17.41;100.00
52577;BME280;38469;53.562;10.048;2023-07-22T06:55:10;101071.94;;;17.39;100.00
52577;BME280;38469;53.562;10.048;2023-07-22T06:57:37;101068.41;;;17.59;100.00
52577;BME280;38469;53.562;10.048;2023-07-22T07:00:05;101062.69;;;17.56;100.00
52577;BME280;38469;53.562;10.048;2023-07-22T07:02:31;101067.72;;;18.24;100.00
52577;BME280;38469;53.562;10.048;2023-07-22T07:04:59;101077.41;;;18.80;100.00
52577;BME280;38469;53.562;10.048;2023-07-22T07:07:25;101075.00;;;19.39;93.81
52577;BME280;38469;53.562;10.048;2023-07-22T07:09:52;101082.88;;;19.97;89.05
52577;BME280;38469;53.562;10.048;2023-07-22T07:12:18;101089.63;;;20.20;85.30
52577;BME280;38469;53.562;10.048;2023-07-22T07:14:45;101090.34;;;19.93;87.34
52577;BME280;38469;53.562;10.048;2023-07-22T07:17:11;101082.03;;;20.08;84.16
52577;BME280;38469;53.562;10.048;2023-07-22T07:19:38;101087.75;;;21.26;78.06
52577;BME280;38469;53.562;10.048;2023-07-22T07:22:06;101084.97;;;22.11;71.67
52577;BME280;38469;53.562;10.048;2023-07-22T07:24:32;101092.25;;;22.50;68.11
52577;BME280;38469;53.562;10.048;2023-07-22T07:26:58;101089.59;;;22.38;68.28
52577;BME280;38469;53.562;10.048;2023-07-22T07:29:25;101086.72;;;23.18;63.57
52577;BME280;38469;53.562;10.048;2023-07-22T07:31:51;101095.31;;;23.48;58.40
52577;BME280;38469;53.562;10.048;2023-07-22T07:34:18;101093.75;;;24.02;57.91
52577;BME280;38469;53.562;10.048;2023-07-22T07:36:44;101098.88;;;25.29;53.35
52577;BME280;38469;53.562;10.048;2023-07-22T07:39:13;101102.63;;;25.00;52.04
52577;BME280;38469;53.562;10.048;2023-07-22T07:41:40;101101.59;;;25.15;52.88
52577;BME280;38469;53.562;10.048;2023-07-22T07:44:06;101107.19;;;25.08;52.72
52577;BME280;38469;53.562;10.048;2023-07-22T07:46:32;101114.22;;;24.55;53.03
52577;BME280;38469;53.562;10.048;2023-07-22T07:49:00;101108.78;;;23.12;57.00
52577;BME280;38469;53.562;10.048;2023-07-22T07:51:28;101122.59;;;21.87;61.08
52577;BME280;38469;53.562;10.048;2023-07-22T07:53:55;101112.59;;;21.08;69.43
52577;BME280;38469;53.562;10.048;2023-07-22T07:56:25;101088.28;;;20.57;72.03
52577;BME280;38469;53.562;10.048;2023-07-22T07:58:53;101119.00;;;20.66;73.41
52577;BME280;38469;53.562;10.048;2023-07-22T08:01:20;101122.69;;;20.82;74.33
52577;BME280;38469;53.562;10.048;2023-07-22T08:03:46;101124.84;;;20.45;75.76
52577;BME280;38469;53.562;10.048;2023-07-22T08:06:13;101123.97;;;20.29;76.99
52577;BME280;38469;53.562;10.048;2023-07-22T08:08:39;101123.97;;;20.17;75.88
52577;BME280;38469;53.562;10.048;2023-07-22T08:11:07;101118.00;;;20.30;75.25
52577;BME280;38469;53.562;10.048;2023-07-22T08:13:35;101124.72;;;20.42;76.43
52577;BME280;38469;53.562;10.048;2023-07-22T08:16:03;101109.19;;;19.92;75.86
52577;BME280;38469;53.562;10.048;2023-07-22T08:18:30;101112.97;;;19.36;80.66
52577;BME280;38469;53.562;10.048;2023-07-22T08:20:56;101129.34;;;19.13;82.52
52577;BME280;38469;53.562;10.048;2023-07-22T08:23:23;101123.56;;;18.86;86.80
52577;BME280;38469;53.562;10.048;2023-07-22T08:25:50;101116.22;;;18.81;86.08
52577;BME280;38469;53.562;10.048;2023-07-22T08:28:16;101116.28;;;19.05;83.49
52577;BME280;38469;53.562;10.048;2023-07-22T08:30:44;101121.53;;;19.19;84.86
52577;BME280;38469;53.562;10.048;2023-07-22T08:33:11;101122.16;;;19.73;82.63
52577;BME280;38469;53.562;10.048;2023-07-22T08:35:38;101122.38;;;19.92;78.64
52577;BME280;38469;53.562;10.048;2023-07-22T08:38:04;101122.16;;;19.73;76.13
52577;BME280;38469;53.562;10.048;2023-07-22T08:40:34;101125.19;;;19.80;73.98
52577;BME280;38469;53.562;10.048;2023-07-22T08:43:03;101115.31;;;20.10;73.03
52577;BME280;38469;53.562;10.048;2023-07-22T08:45:33;101130.50;;;20.21;73.90
52577;BME280;38469;53.562;10.048;2023-07-22T08:48:04;101124.19;;;20.24;71.82
52577;BME280;38469;53.562;10.048;2023-07-22T08:50:35;101122.81;;;20.06;71.44
52577;BME280;38469;53.562;10.048;2023-07-22T08:53:04;101127.56;;;20.57;71.12
52577;BME280;38469;53.562;10.048;2023-07-22T08:55:31;101127.19;;;20.86;68.93
52577;BME280;38469;53.562;10.048;2023-07-22T08:57:58;101124.50;;;20.34;63.51
52577;BME280;38469;53.562;10.048;2023-07-22T09:00:24;101134.50;;;20.20;64.52
52577;BME280;38469;53.562;10.048;2023-07-22T09:02:52;101132.13;;;20.22;64.58
52577;BME280;38469;53.562;10.048;2023-07-22T09:05:20;101136.59;;;19.99;65.88
52577;BME280;38469;53.562;10.048;2023-07-22T09:07:47;101135.91;;;19.90;65.68
52577;BME280;38469;53.562;10.048;2023-07-22T09:10:15;101136.66;;;19.63;68.44
52577;BME280;38469;53.562;10.048;2023-07-22T09:12:41;101142.50;;;20.33;67.41
52577;BME280;38469;53.562;10.048;2023-07-22T09:15:09;101137.75;;;20.10;67.73
52577;BME280;38469;53.562;10.048;2023-07-22T09:17:37;101133.78;;;20.23;65.82
52577;BME280;38469;53.562;10.048;2023-07-22T09:20:05;101135.41;;;20.24;64.89
52577;BME280;38469;53.562;10.048;2023-07-22T09:22:34;101132.16;;;20.50;65.81
52577;BME280;38469;53.562;10.048;2023-07-22T09:25:14;101132.81;;;20.31;65.38
52577;BME280;38469;53.562;10.048;2023-07-22T09:27:40;101137.06;;;20.01;65.70
52577;BME280;38469;53.562;10.048;2023-07-22T09:30:20;101138.69;;;20.02;64.70
52577;BME280;38469;53.562;10.048;2023-07-22T09:32:47;101126.88;;;20.33;64.56
52577;BME280;38469;53.562;10.048;2023-07-22T09:35:13;101131.78;;;20.63;66.50
52577;BME280;38469;53.562;10.048;2023-07-22T09:37:41;101124.69;;;20.69;60.65
52577;BME280;38469;53.562;10.048;2023-07-22T09:40:14;101122.78;;;20.30;60.58
52577;BME280;38469;53.562;10.048;2023-07-22T09:42:44;101115.75;;;20.36;62.56
52577;BME280;38469;53.562;10.048;2023-07-22T09:45:10;101116.50;;;20.76;61.63
52577;BME280;38469;53.562;10.048;2023-07-22T09:47:40;101126.75;;;20.84;61.94
52577;BME280;38469;53.562;10.048;2023-07-22T09:50:10;101125.72;;;20.77;60.95
52577;BME280;38469;53.562;10.048;2023-07-22T09:52:42;101133.78;;;20.78;59.28
52577;BME280;38469;53.562;10.048;2023-07-22T09:55:10;101126.00;;;20.87;58.57
52577;BME280;38469;53.562;10.048;2023-07-22T09:57:39;101122.94;;;21.20;59.15
52577;BME280;38469;53.562;10.048;2023-07-22T10:00:10;101125.38;;;21.53;57.76
52577;BME280;38469;53.562;10.048;2023-07-22T10:02:38;101125.38;;;21.21;59.81
52577;BME280;38469;53.562;10.048;2023-07-22T10:05:06;101112.41;;;21.48;57.19
52577;BME280;38469;53.562;10.048;2023-07-22T10:07:35;101118.47;;;21.34;57.91
52577;BME280;38469;53.562;10.048;2023-07-22T10:10:06;101118.03;;;21.48;55.87
52577;BME280;38469;53.562;10.048;2023-07-22T10:12:33;101117.97;;;21.95;54.60
52577;BME280;38469;53.562;10.048;2023-07-22T10:15:00;101099.75;;;22.23;52.98
52577;BME280;38469;53.562;10.048;2023-07-22T10:17:29;101114.00;;;22.15;53.06
52577;BME280;38469;53.562;10.048;2023-07-22T10:19:56;101114.75;;;22.31;51.76
52577;BME280;38469;53.562;10.048;2023-07-22T10:22:23;101115.91;;;22.65;52.14
52577;BME280;38469;53.562;10.048;2023-07-22T10:24:52;101119.53;;;23.07;52.83
52577;BME280;38469;53.562;10.048;2023-07-22T10:27:20;101120.91;;;23.16;51.89
52577;BME280;38469;53.562;10.048;2023-07-22T10:29:47;101108.94;;;22.78;51.77
52577;BME280;38469;53.562;10.048;2023-07-22T10:32:14;101099.25;;;23.20;49.28
52577;BME280;38469;53.562;10.048;2023-07-22T10:34:42;101107.00;;;23.04;47.32
52577;BME280;38469;53.562;10.048;2023-07-22T10:37:09;101118.13;;;23.39;46.92
52577;BME280;38469;53.562;10.048;2023-07-22T10:39:35;101114.53;;;23.91;46.58
52577;BME280;38469;53.562;10.048;2023-07-22T10:42:02;101109.22;;;23.14;49.28
52577;BME280;38469;53.562;10.048;2023-07-22T10:44:32;101122.91;;;22.93;49.25
52577;BME280;38469;53.562;10.048;2023-07-22T10:46:59;101107.69;;;23.92;47.49
52577;BME280;38469;53.562;10.048;2023-07-22T10:49:29;101097.06;;;25.07;44.56
52577;BME280;38469;53.562;10.048;2023-07-22T10:52:10;101115.25;;;24.73;44.11
52577;BME280;38469;53.562;10.048;2023-07-22T10:54:37;101109.06;;;24.31;44.88
52577;BME280;38469;53.562;10.048;2023-07-22T10:57:04;101117.59;;;24.35;45.55
52577;BME280;38469;53.562;10.048;2023-07-22T10:59:50;101112.47;;;24.77;43.94
52577;BME280;38469;53.562;10.048;2023-07-22T11:02:23;101113.78;;;24.20;43.45
52577;BME280;38469;53.562;10.048;2023-07-22T11:04:50;101115.06;;;24.00;46.52
52577;BME280;38469;53.562;10.048;2023-07-22T11:07:30;101111.75;;;23.00;47.50
52577;BME280;38469;53.562;10.048;2023-07-22T11:09:56;101107.66;;;22.75;47.31
52577;BME280;38469;53.562;10.048;2023-07-22T11:12:24;101115.97;;;22.68;48.54
52577;BME280;38469;53.562;10.048;2023-07-22T11:14:54;101107.72;;;22.41;48.78
52577;BME280;38469;53.562;10.048;2023-07-22T11:17:29;101106.00;;;21.98;48.10
52577;BME280;38469;53.562;10.048;2023-07-22T11:19:56;101098.91;;;22.23;49.87
52577;BME280;38469;53.562;10.048;2023-07-22T11:22:22;101103.88;;;22.10;50.01
52577;BME280;38469;53.562;10.048;2023-07-22T11:24:48;101110.28;;;21.92;49.44
52577;BME280;38469;53.562;10.048;2023-07-22T11:27:15;101110.28;;;21.92;50.21
52577;BME280;38469;53.562;10.048;2023-07-22T11:29:42;101103.06;;;22.10;50.92
52577;BME280;38469;53.562;10.048;2023-07-22T11:32:16;101102.00;;;21.99;50.55
52577;BME280;38469;53.562;10.048;2023-07-22T11:34:43;101098.91;;;21.54;52.81
52577;BME280;38469;53.562;10.048;2023-07-22T11:37:11;101099.63;;;22.01;51.08
52577;BME280;38469;53.562;10.048;2023-07-22T11:39:38;101092.84;;;22.21;51.56
52577;BME280;38469;53.562;10.048;2023-07-22T11:42:07;101088.19;;;22.67;49.36
52577;BME280;38469;53.562;10.048;2023-07-22T11:44:34;101087.69;;;22.61;48.61
52577;BME280;38469;53.562;10.048;2023-07-22T11:47:01;101090.31;;;22.35;49.44
52577;BME280;38469;53.562;10.048;2023-07-22T11:49:31;101079.34;;;22.11;50.02
52577;BME280;38469;53.562;10.048;2023-07-22T11:51:59;101055.56;;;21.89;49.66
52577;BME280;38469;53.562;10.048;2023-07-22T11:54:27;101084.72;;;21.66;49.60
52577;BME280;38469;53.562;10.048;2023-07-22T11:56:54;101083.09;;;21.80;50.55
52577;BME280;38469;53.562;10.048;2023-07-22T11:59:34;101085.63;;;21.70;52.33
52577;BME280;38469;53.562;10.048;2023-07-22T12:02:01;101080.69;;;21.98;52.53
52577;BME280;38469;53.562;10.048;2023-07-22T12:04:29;101074.19;;;22.32;51.27
52577;BME280;38469;53.562;10.048;2023-07-22T12:06:56;101087.63;;;21.85;53.37
52577;BME280;38469;53.562;10.048;2023-07-22T12:09:22;101075.59;;;21.53;52.84
52577;BME280;38469;53.562;10.048;2023-07-22T12:11:55;101079.94;;;21.82;52.96
52577;BME280;38469;53.562;10.048;2023-07-22T12:14:21;101082.91;;;21.89;53.42
52577;BME280;38469;53.562;10.048;2023-07-22T12:16:53;101070.91;;;21.92;55.17
52577;BME280;38469;53.562;10.048;2023-07-22T12:19:21;101074.13;;;22.28;55.19
52577;BME280;38469;53.562;10.048;2023-07-22T12:21:49;101073.44;;;22.35;54.81
52577;BME280;38469;53.562;10.048;2023-07-22T12:24:15;101074.88;;;22.86;52.89
52577;BME280;38469;53.562;10.048;2023-07-22T12:26:42;101060.41;;;22.65;52.18
52577;BME280;38469;53.562;10.048;2023-07-22T12:29:09;101068.66;;;22.96;52.69
52577;BME280;38469;53.562;10.048;2023-07-22T12:31:36;101062.84;;;22.89;51.63
52577;BME280;38469;53.562;10.048;2023-07-22T12:34:02;101063.50;;;22.79;52.53
52577;BME280;38469;53.562;10.048;2023-07-22T12:36:29;101055.06;;;22.60;52.30